createdAt,value
2023-07-31T00:01:48.290Z,18.63
2023-07-31T00:04:15.236Z,18.56
2023-07-31T00:06:42.641Z,18.58
2023-07-31T00:09:09.828Z,18.61
2023-07-31T00:11:36.710Z,18.58
2023-07-31T00:14:03.549Z,18.56
2023-07-31T00:16:30.541Z,18.56
2023-07-31T00:18:57.366Z,18.50
2023-07-31T00:21:24.189Z,18.48
2023-07-31T00:23:51.091Z,18.50
2023-07-31T00:26:18.012Z,18.49
2023-07-31T00:28:44.868Z,18.47
2023-07-31T00:31:11.743Z,18.45
2023-07-31T00:33:39.286Z,18.31
2023-07-31T00:36:06.203Z,18.40
2023-07-31T00:38:33.028Z,18.35
2023-07-31T00:40:59.935Z,18.39
2023-07-31T00:43:26.808Z,18.35
2023-07-31T00:45:53.760Z,18.35
2023-07-31T00:48:20.671Z,18.25
2023-07-31T00:50:47.584Z,18.29
2023-07-31T00:53:14.805Z,18.26
2023-07-31T00:55:41.825Z,18.27
2023-07-31T00:58:08.698Z,18.24
2023-07-31T01:00:35.658Z,18.23
2023-07-31T01:03:02.992Z,18.00
2023-07-31T01:05:44.778Z,18.16
2023-07-31T01:08:24.286Z,18.18
2023-07-31T01:11:18.713Z,18.11
2023-07-31T01:13:46.898Z,18.15
2023-07-31T01:16:13.883Z,18.05
2023-07-31T01:18:40.788Z,18.11
2023-07-31T01:21:24.470Z,18.08
2023-07-31T01:24:21.940Z,18.05
2023-07-31T01:27:15.449Z,18.01
2023-07-31T01:30:01.698Z,17.89
2023-07-31T01:32:30.580Z,17.97
2023-07-31T01:35:00.144Z,17.31
2023-07-31T01:37:33.236Z,17.52
2023-07-31T01:40:00.179Z,17.51
2023-07-31T01:42:27.021Z,17.50
2023-07-31T01:44:53.913Z,17.52
2023-07-31T01:47:20.786Z,17.65
2023-07-31T01:49:47.632Z,17.70
2023-07-31T01:52:14.463Z,17.73
2023-07-31T01:54:41.289Z,17.70
2023-07-31T01:57:08.141Z,17.75
2023-07-31T01:59:35.037Z,17.76
2023-07-31T02:02:01.917Z,17.75
2023-07-31T02:04:28.822Z,17.75
2023-07-31T02:06:55.689Z,17.71
2023-07-31T02:09:22.630Z,17.74
2023-07-31T02:11:49.485Z,17.68
2023-07-31T02:14:16.310Z,17.43
2023-07-31T02:16:44.106Z,17.54
2023-07-31T02:19:11.168Z,17.63
2023-07-31T02:21:38.002Z,17.63
2023-07-31T02:24:05.252Z,17.59
2023-07-31T02:26:32.074Z,17.56
2023-07-31T02:28:58.933Z,17.62
2023-07-31T02:31:25.802Z,17.55
2023-07-31T02:33:52.658Z,17.43
2023-07-31T02:36:20.116Z,17.55
2023-07-31T02:38:46.962Z,17.55
2023-07-31T02:41:13.798Z,17.43
2023-07-31T02:43:40.776Z,17.45
2023-07-31T02:46:07.707Z,17.54
2023-07-31T02:48:34.642Z,17.52
2023-07-31T02:51:01.452Z,17.47
2023-07-31T02:53:28.287Z,17.48
2023-07-31T02:55:55.162Z,17.45
2023-07-31T02:58:22.092Z,17.48
2023-07-31T03:00:48.928Z,17.42
2023-07-31T03:03:15.959Z,17.44
2023-07-31T03:05:42.888Z,17.38
2023-07-31T03:08:09.753Z,17.39
2023-07-31T03:10:36.619Z,17.28
2023-07-31T03:13:03.460Z,17.37
2023-07-31T03:15:30.392Z,17.39
2023-07-31T03:17:57.302Z,17.33
2023-07-31T03:20:24.247Z,17.35
2023-07-31T03:22:51.117Z,17.31
2023-07-31T03:25:18.040Z,17.32
2023-07-31T03:27:44.899Z,17.29
2023-07-31T03:30:12.015Z,17.23
2023-07-31T03:32:38.973Z,17.21
2023-07-31T03:35:06.687Z,17.21
2023-07-31T03:37:33.601Z,17.22
2023-07-31T03:40:00.454Z,17.19
2023-07-31T03:42:27.314Z,17.08
2023-07-31T03:44:54.155Z,17.20
2023-07-31T03:47:20.997Z,17.14
2023-07-31T03:49:47.951Z,17.15
2023-07-31T03:52:14.774Z,17.18
2023-07-31T03:54:41.582Z,17.16
2023-07-31T03:57:08.403Z,17.05
2023-07-31T03:59:35.236Z,17.07
2023-07-31T04:02:02.109Z,17.05
2023-07-31T04:04:28.998Z,17.05
2023-07-31T04:06:55.859Z,17.05
2023-07-31T04:09:22.680Z,17.05
2023-07-31T04:11:49.555Z,17.05
2023-07-31T04:14:16.363Z,16.99
2023-07-31T04:16:43.521Z,17.01
2023-07-31T04:19:11.740Z,17.05
2023-07-31T04:21:38.666Z,17.05
2023-07-31T04:24:05.592Z,17.04
2023-07-31T04:26:32.467Z,17.04
2023-07-31T04:28:59.277Z,16.98
2023-07-31T04:31:26.129Z,16.96
2023-07-31T04:33:52.985Z,16.96
2023-07-31T04:36:19.820Z,16.99
2023-07-31T04:38:46.676Z,16.94
2023-07-31T04:41:13.569Z,16.98
2023-07-31T04:43:40.950Z,16.97
2023-07-31T04:46:07.871Z,16.98
2023-07-31T04:48:34.758Z,17.03
2023-07-31T04:51:01.615Z,17.03
2023-07-31T04:53:28.958Z,16.98
2023-07-31T04:55:55.831Z,17.03
2023-07-31T04:58:22.693Z,17.01
2023-07-31T05:00:49.530Z,17.05
2023-07-31T05:03:16.419Z,16.96
2023-07-31T05:05:43.366Z,17.05
2023-07-31T05:08:10.275Z,17.06
2023-07-31T05:10:37.134Z,17.07
2023-07-31T05:13:03.994Z,16.99
2023-07-31T05:15:30.966Z,17.08
2023-07-31T05:17:57.823Z,16.91
2023-07-31T05:20:24.765Z,17.12
2023-07-31T05:22:52.316Z,17.10
2023-07-31T05:25:19.138Z,17.16
2023-07-31T05:27:46.244Z,17.12
2023-07-31T05:30:13.090Z,17.19
2023-07-31T05:32:39.995Z,17.13
2023-07-31T05:35:07.327Z,17.15
2023-07-31T05:37:34.172Z,17.17
2023-07-31T05:40:01.016Z,17.23
2023-07-31T05:42:27.853Z,17.18
2023-07-31T05:44:54.784Z,17.10
2023-07-31T05:47:21.705Z,17.21
2023-07-31T05:49:50.325Z,17.19
2023-07-31T05:52:17.206Z,17.21
2023-07-31T05:54:44.123Z,17.25
2023-07-31T05:57:10.947Z,17.19
2023-07-31T05:59:37.793Z,17.22
2023-07-31T06:02:04.950Z,17.28
2023-07-31T06:04:31.957Z,17.24
2023-07-31T06:06:58.847Z,17.29
2023-07-31T06:09:26.899Z,17.31
2023-07-31T06:11:53.948Z,17.25
2023-07-31T06:14:20.839Z,17.32
2023-07-31T06:16:47.697Z,17.30
2023-07-31T06:19:14.592Z,17.33
2023-07-31T06:21:43.594Z,17.38
2023-07-31T06:24:10.473Z,17.39
2023-07-31T06:26:37.697Z,17.42
2023-07-31T06:29:04.921Z,17.40
2023-07-31T06:31:31.926Z,17.42
2023-07-31T06:33:58.813Z,17.40
2023-07-31T06:36:25.727Z,17.39
2023-07-31T06:38:52.574Z,17.46
2023-07-31T06:41:19.510Z,17.51
2023-07-31T06:43:46.508Z,17.44
2023-07-31T06:46:13.455Z,17.51
2023-07-31T06:48:40.503Z,17.53
2023-07-31T06:51:07.459Z,17.55
2023-07-31T06:53:34.385Z,17.56
2023-07-31T06:56:01.237Z,17.66
2023-07-31T06:58:28.134Z,17.63
2023-07-31T07:00:55.051Z,17.70
2023-07-31T07:03:21.942Z,17.73
2023-07-31T07:05:49.035Z,17.75
2023-07-31T07:08:16.044Z,17.78
2023-07-31T07:10:42.971Z,17.82
2023-07-31T07:13:10.564Z,17.77
2023-07-31T07:15:37.660Z,17.80
2023-07-31T07:18:04.884Z,17.93
2023-07-31T07:20:31.948Z,17.95
2023-07-31T07:22:58.801Z,18.14
2023-07-31T07:25:25.655Z,18.20
2023-07-31T07:27:52.578Z,18.28
2023-07-31T07:30:20.911Z,18.39
2023-07-31T07:32:47.904Z,18.52
2023-07-31T07:35:14.829Z,18.65
2023-07-31T07:37:41.678Z,18.60
2023-07-31T07:40:09.440Z,18.81
2023-07-31T07:42:36.315Z,18.82
2023-07-31T07:45:04.143Z,18.82
2023-07-31T07:47:31.029Z,18.86
2023-07-31T07:49:57.901Z,19.03
2023-07-31T07:52:24.777Z,18.96
2023-07-31T07:54:51.996Z,18.97
2023-07-31T07:57:19.495Z,18.97
2023-07-31T07:59:46.431Z,19.15
2023-07-31T08:02:13.260Z,19.13
2023-07-31T08:04:40.107Z,19.16
2023-07-31T08:07:06.953Z,19.21
2023-07-31T08:09:33.785Z,19.19
2023-07-31T08:12:03.838Z,19.27
2023-07-31T08:14:33.068Z,19.25
2023-07-31T08:17:00.984Z,19.33
2023-07-31T08:19:27.992Z,19.35
2023-07-31T08:21:56.886Z,19.37
2023-07-31T08:24:25.239Z,19.33
2023-07-31T08:26:52.058Z,19.36
2023-07-31T08:29:18.980Z,19.44
2023-07-31T08:31:45.796Z,19.42
2023-07-31T08:34:12.674Z,19.56
2023-07-31T08:36:39.754Z,19.55
2023-07-31T08:39:07.329Z,19.66
2023-07-31T08:41:42.740Z,19.75
2023-07-31T08:44:11.557Z,19.76
2023-07-31T08:46:39.197Z,19.81
2023-07-31T08:49:08.395Z,19.80
2023-07-31T08:51:36.524Z,19.85
2023-07-31T08:54:06.521Z,19.90
2023-07-31T08:56:33.929Z,19.86
2023-07-31T08:59:04.790Z,19.97
2023-07-31T09:01:32.814Z,20.13
2023-07-31T09:04:02.872Z,20.30
2023-07-31T09:06:31.457Z,20.25
2023-07-31T09:08:58.319Z,20.33
2023-07-31T09:11:26.325Z,20.42
2023-07-31T09:13:53.854Z,20.46
2023-07-31T09:16:29.165Z,20.51
2023-07-31T09:18:57.974Z,20.69
2023-07-31T09:21:26.735Z,20.76
2023-07-31T09:23:55.209Z,20.66
2023-07-31T09:26:37.737Z,20.73
2023-07-31T09:29:20.059Z,20.82
2023-07-31T09:31:47.041Z,20.98
2023-07-31T09:34:14.979Z,21.00
2023-07-31T09:36:48.329Z,21.06
2023-07-31T09:39:17.882Z,21.11
2023-07-31T09:41:55.225Z,21.13
2023-07-31T09:44:22.450Z,21.14
2023-07-31T09:46:49.715Z,21.10
2023-07-31T09:49:16.818Z,21.09
2023-07-31T09:51:50.209Z,21.18
2023-07-31T09:54:17.991Z,21.24
2023-07-31T09:56:47.933Z,21.17
2023-07-31T09:59:19.681Z,21.11
2023-07-31T10:01:50.031Z,21.12
2023-07-31T10:04:21.845Z,21.08
2023-07-31T10:06:51.319Z,21.18
2023-07-31T10:09:19.938Z,21.23
2023-07-31T10:12:01.812Z,21.30
2023-07-31T10:14:30.047Z,21.16
2023-07-31T10:16:59.600Z,21.28
2023-07-31T10:19:28.613Z,21.34
2023-07-31T10:21:58.124Z,21.28
2023-07-31T10:24:25.828Z,21.36
2023-07-31T10:26:54.304Z,21.35
2023-07-31T10:29:23.019Z,21.35
2023-07-31T10:31:50.152Z,21.36
2023-07-31T10:34:17.870Z,21.37
2023-07-31T10:36:44.817Z,21.46
2023-07-31T10:39:39.457Z,21.46
2023-07-31T10:42:15.541Z,21.54
2023-07-31T10:44:47.900Z,21.57
2023-07-31T10:47:18.942Z,21.64
2023-07-31T10:49:49.824Z,21.65
2023-07-31T10:52:27.965Z,21.81
2023-07-31T10:55:40.608Z,21.84
2023-07-31T10:58:15.110Z,21.86
2023-07-31T11:00:44.524Z,21.94
2023-07-31T11:03:19.904Z,21.94
2023-07-31T11:06:02.498Z,21.98
2023-07-31T11:08:32.420Z,22.06
2023-07-31T11:11:07.512Z,22.03
2023-07-31T11:13:42.016Z,22.07
2023-07-31T11:16:10.817Z,22.18
2023-07-31T11:18:42.039Z,22.11
2023-07-31T11:21:13.367Z,22.20
2023-07-31T11:23:40.430Z,22.27
2023-07-31T11:26:08.401Z,22.28
2023-07-31T11:28:36.281Z,22.29
2023-07-31T11:31:04.288Z,22.35
2023-07-31T11:33:31.777Z,22.40
2023-07-31T11:35:58.636Z,22.41
2023-07-31T11:38:31.385Z,22.41
2023-07-31T11:41:03.960Z,22.41
2023-07-31T11:43:32.634Z,22.48
2023-07-31T11:46:04.413Z,22.46
2023-07-31T11:48:36.110Z,22.47
2023-07-31T11:51:09.826Z,22.40
2023-07-31T11:53:51.498Z,22.43
2023-07-31T11:56:21.165Z,22.44
2023-07-31T11:58:52.678Z,22.36
2023-07-31T12:01:22.277Z,22.30
2023-07-31T12:03:50.985Z,22.28
2023-07-31T12:06:17.974Z,22.27
2023-07-31T12:08:45.047Z,22.26
2023-07-31T12:11:11.923Z,22.29
2023-07-31T12:13:38.791Z,22.26
2023-07-31T12:16:06.408Z,22.18
2023-07-31T12:18:40.226Z,22.24
2023-07-31T12:21:09.714Z,22.15
2023-07-31T12:23:38.485Z,22.25
2023-07-31T12:26:09.436Z,22.24
2023-07-31T12:28:45.915Z,22.30
2023-07-31T12:31:23.665Z,22.25
2023-07-31T12:33:52.434Z,22.24
2023-07-31T12:36:25.276Z,22.17
2023-07-31T12:38:53.480Z,22.17
2023-07-31T12:41:20.661Z,22.22
2023-07-31T12:43:47.537Z,22.19
2023-07-31T12:46:15.297Z,22.15
2023-07-31T12:48:42.218Z,22.22
2023-07-31T12:51:09.294Z,22.17
2023-07-31T12:53:36.503Z,22.16
2023-07-31T12:56:03.631Z,22.18
2023-07-31T12:58:30.563Z,22.14
2023-07-31T13:00:57.610Z,22.19
2023-07-31T13:03:24.776Z,22.22
2023-07-31T13:05:53.661Z,22.17
2023-07-31T13:08:20.994Z,22.18
2023-07-31T13:10:47.969Z,22.15
2023-07-31T13:13:14.841Z,22.11
2023-07-31T13:15:41.973Z,22.18
2023-07-31T13:18:08.830Z,22.18
2023-07-31T13:20:35.678Z,22.20
2023-07-31T13:23:02.577Z,22.15
2023-07-31T13:25:29.469Z,22.03
2023-07-31T13:27:57.232Z,22.00
2023-07-31T13:30:24.972Z,22.10
2023-07-31T13:32:51.993Z,22.06
2023-07-31T13:35:18.920Z,21.94
2023-07-31T13:37:45.744Z,21.98
2023-07-31T13:40:12.867Z,22.02
2023-07-31T13:42:39.717Z,22.05
2023-07-31T13:45:07.849Z,22.04
2023-07-31T13:47:35.778Z,22.01
2023-07-31T13:50:03.416Z,22.05
2023-07-31T13:52:30.296Z,22.02
2023-07-31T13:54:57.139Z,22.02
2023-07-31T13:57:24.673Z,22.03
2023-07-31T13:59:51.794Z,21.99
2023-07-31T14:02:18.681Z,22.00
2023-07-31T14:04:45.573Z,22.01
2023-07-31T14:07:12.601Z,22.06
2023-07-31T14:09:39.448Z,22.11
2023-07-31T14:12:06.980Z,22.07
2023-07-31T14:14:35.317Z,22.13
2023-07-31T14:17:02.850Z,22.16
2023-07-31T14:19:30.317Z,22.15
2023-07-31T14:22:10.166Z,22.15
2023-07-31T14:24:38.818Z,22.11
2023-07-31T14:27:06.129Z,22.13
2023-07-31T14:29:33.056Z,22.18
2023-07-31T14:32:00.943Z,22.22
2023-07-31T14:34:27.973Z,22.25
2023-07-31T14:36:54.833Z,22.25
2023-07-31T14:39:21.710Z,22.28
2023-07-31T14:41:49.122Z,22.35
2023-07-31T14:44:16.258Z,22.38
2023-07-31T14:46:43.485Z,22.35
2023-07-31T14:49:10.678Z,22.51
2023-07-31T14:51:37.554Z,22.59
2023-07-31T14:54:04.399Z,22.59
2023-07-31T14:56:31.231Z,22.57
2023-07-31T14:58:58.633Z,22.69
2023-07-31T15:01:25.727Z,22.60
2023-07-31T15:03:52.734Z,22.69
2023-07-31T15:06:19.761Z,22.69
2023-07-31T15:08:46.598Z,22.76
2023-07-31T15:11:14.046Z,22.75
2023-07-31T15:13:40.910Z,22.69
2023-07-31T15:16:07.843Z,22.73
2023-07-31T15:18:34.709Z,22.79
2023-07-31T15:21:01.619Z,22.75
2023-07-31T15:23:28.480Z,22.77
2023-07-31T15:25:55.437Z,22.72
2023-07-31T15:28:22.408Z,22.67
2023-07-31T15:30:49.372Z,22.71
2023-07-31T15:33:17.193Z,22.77
2023-07-31T15:35:44.304Z,22.76
2023-07-31T15:38:11.322Z,22.72
2023-07-31T15:40:40.175Z,22.76
2023-07-31T15:43:07.126Z,22.88
2023-07-31T15:45:33.991Z,22.82
2023-07-31T15:48:00.847Z,22.90
2023-07-31T15:50:27.760Z,22.86
2023-07-31T15:52:54.618Z,22.87
2023-07-31T15:55:22.690Z,22.85
2023-07-31T15:57:49.576Z,22.91
2023-07-31T16:00:16.886Z,22.94
2023-07-31T16:02:44.249Z,22.98
2023-07-31T16:05:11.686Z,23.03
2023-07-31T16:07:38.579Z,22.99
2023-07-31T16:10:06.263Z,23.11
2023-07-31T16:12:34.085Z,23.27
2023-07-31T16:15:00.937Z,23.21
2023-07-31T16:17:27.906Z,23.33
2023-07-31T16:19:54.920Z,23.35
2023-07-31T16:22:21.829Z,23.43
2023-07-31T16:24:48.693Z,23.38
2023-07-31T16:27:15.517Z,23.26
2023-07-31T16:29:42.384Z,23.36
2023-07-31T16:32:11.935Z,23.32
2023-07-31T16:34:39.505Z,23.38
2023-07-31T16:37:06.528Z,23.38
2023-07-31T16:39:36.385Z,23.34
2023-07-31T16:42:04.814Z,23.34
2023-07-31T16:44:31.846Z,23.34
2023-07-31T16:46:58.806Z,23.34
2023-07-31T16:49:25.748Z,23.31
2023-07-31T16:51:52.780Z,23.24
2023-07-31T16:54:19.692Z,23.26
2023-07-31T16:56:59.296Z,23.27
2023-07-31T16:59:28.832Z,23.25
2023-07-31T17:01:59.829Z,23.21
2023-07-31T17:04:28.017Z,23.19
2023-07-31T17:06:55.155Z,23.15
2023-07-31T17:09:21.997Z,23.17
2023-07-31T17:11:48.851Z,23.17
2023-07-31T17:14:16.609Z,23.16
2023-07-31T17:16:43.778Z,23.18
2023-07-31T17:19:10.680Z,23.14
2023-07-31T17:21:38.052Z,23.18
2023-07-31T17:24:05.645Z,23.08
2023-07-31T17:26:32.707Z,23.12
2023-07-31T17:29:01.422Z,23.09
2023-07-31T17:31:28.639Z,23.09
2023-07-31T17:33:55.744Z,23.01
2023-07-31T17:36:22.657Z,23.04
2023-07-31T17:38:49.470Z,22.96
2023-07-31T17:41:16.314Z,23.01
2023-07-31T17:43:43.460Z,22.86
2023-07-31T17:46:10.383Z,22.99
2023-07-31T17:48:39.217Z,22.97
2023-07-31T17:51:06.088Z,22.84
2023-07-31T17:53:33.005Z,22.82
2023-07-31T17:55:59.924Z,22.86
2023-07-31T17:58:26.814Z,22.83
2023-07-31T18:00:53.706Z,22.85
2023-07-31T18:03:22.381Z,22.79
2023-07-31T18:05:49.398Z,22.83
2023-07-31T18:08:16.248Z,22.82
2023-07-31T18:10:47.298Z,22.78
2023-07-31T18:13:14.910Z,22.72
2023-07-31T18:15:51.150Z,22.60
2023-07-31T18:18:18.716Z,22.57
2023-07-31T18:20:46.330Z,22.49
2023-07-31T18:23:13.216Z,22.36
2023-07-31T18:25:43.072Z,22.43
2023-07-31T18:28:09.925Z,22.38
2023-07-31T18:30:36.921Z,22.36
2023-07-31T18:33:03.909Z,22.40
2023-07-31T18:35:30.804Z,22.35
2023-07-31T18:37:57.670Z,22.41
2023-07-31T18:40:24.541Z,22.34
2023-07-31T18:42:51.381Z,22.38
2023-07-31T18:45:18.626Z,22.34
2023-07-31T18:47:45.518Z,22.34
2023-07-31T18:50:12.557Z,22.29
2023-07-31T18:52:39.553Z,22.31
2023-07-31T18:55:06.845Z,22.20
2023-07-31T18:57:33.764Z,22.22
2023-07-31T19:00:00.619Z,22.19
2023-07-31T19:02:27.561Z,22.05
2023-07-31T19:04:55.081Z,21.99
2023-07-31T19:07:21.955Z,22.07
2023-07-31T19:09:51.223Z,21.96
2023-07-31T19:12:23.200Z,21.98
2023-07-31T19:14:50.036Z,21.99
2023-07-31T19:17:16.918Z,21.92
2023-07-31T19:19:43.792Z,21.86
2023-07-31T19:22:10.755Z,21.86
2023-07-31T19:24:37.798Z,21.85
2023-07-31T19:27:06.383Z,21.84
2023-07-31T19:29:33.218Z,21.89
2023-07-31T19:32:00.138Z,21.86
2023-07-31T19:34:27.051Z,21.79
2023-07-31T19:36:53.913Z,21.83
2023-07-31T19:39:21.144Z,21.76
2023-07-31T19:41:48.084Z,21.62
2023-07-31T19:44:15.020Z,21.66
2023-07-31T19:46:42.230Z,21.61
2023-07-31T19:49:10.299Z,21.55
2023-07-31T19:51:37.133Z,21.64
2023-07-31T19:54:04.031Z,21.64
2023-07-31T19:56:30.868Z,21.62
2023-07-31T19:58:57.711Z,21.55
2023-07-31T20:01:26.166Z,21.49
2023-07-31T20:03:54.309Z,21.51
2023-07-31T20:06:21.389Z,21.48
2023-07-31T20:08:48.298Z,21.47
2023-07-31T20:11:15.218Z,21.43
2023-07-31T20:13:42.663Z,21.40
2023-07-31T20:16:09.635Z,21.28
2023-07-31T20:18:37.696Z,21.28
2023-07-31T20:21:04.534Z,21.25
2023-07-31T20:23:42.321Z,20.98
2023-07-31T20:26:10.299Z,20.57
2023-07-31T20:28:37.301Z,20.43
2023-07-31T20:31:04.297Z,20.43
2023-07-31T20:33:31.264Z,20.67
2023-07-31T20:35:58.173Z,20.73
2023-07-31T20:38:25.057Z,20.75
2023-07-31T20:40:54.893Z,20.73
2023-07-31T20:43:21.831Z,20.78
2023-07-31T20:45:48.801Z,20.84
2023-07-31T20:48:15.930Z,20.81
2023-07-31T20:50:43.097Z,20.87
2023-07-31T20:53:10.106Z,20.77
2023-07-31T20:55:39.613Z,20.78
2023-07-31T20:58:09.781Z,20.83
2023-07-31T21:00:36.787Z,20.82
2023-07-31T21:03:04.052Z,20.76
2023-07-31T21:05:30.986Z,20.67
2023-07-31T21:07:57.961Z,20.69
2023-07-31T21:10:24.862Z,20.68
2023-07-31T21:12:52.659Z,20.72
2023-07-31T21:15:19.512Z,20.69
2023-07-31T21:17:46.581Z,20.70
2023-07-31T21:20:13.896Z,20.67
2023-07-31T21:22:40.753Z,20.66
2023-07-31T21:25:08.266Z,20.63
2023-07-31T21:27:35.147Z,20.69
2023-07-31T21:30:03.388Z,20.74
2023-07-31T21:32:30.276Z,20.73
2023-07-31T21:34:57.124Z,20.68
2023-07-31T21:37:23.971Z,20.66
2023-07-31T21:39:50.841Z,20.47
2023-07-31T21:42:19.036Z,20.65
2023-07-31T21:44:46.482Z,20.55
2023-07-31T21:47:13.628Z,20.63
2023-07-31T21:49:40.512Z,20.50
2023-07-31T21:52:07.919Z,20.51
2023-07-31T21:54:34.774Z,20.56
2023-07-31T21:57:01.614Z,20.47
2023-07-31T21:59:28.476Z,20.49
2023-07-31T22:01:55.417Z,20.26
2023-07-31T22:04:22.276Z,20.38
2023-07-31T22:06:49.108Z,20.41
2023-07-31T22:09:15.937Z,20.42
2023-07-31T22:11:42.757Z,20.43
2023-07-31T22:14:09.631Z,20.42
2023-07-31T22:16:37.997Z,20.43
2023-07-31T22:19:05.289Z,20.41
2023-07-31T22:21:32.859Z,20.44
2023-07-31T22:23:59.732Z,20.35
2023-07-31T22:26:26.653Z,20.41
2023-07-31T22:28:53.534Z,20.27
2023-07-31T22:31:20.435Z,20.32
2023-07-31T22:33:47.279Z,20.37
2023-07-31T22:36:14.138Z,20.34
2023-07-31T22:38:40.970Z,20.35
2023-07-31T22:41:07.830Z,20.22
2023-07-31T22:43:35.553Z,20.34
2023-07-31T22:46:02.503Z,20.30
2023-07-31T22:48:29.332Z,20.24
2023-07-31T22:50:56.263Z,20.34
2023-07-31T22:53:23.209Z,20.33
2023-07-31T22:55:50.076Z,20.33
2023-07-31T22:58:16.958Z,20.23
2023-07-31T23:00:43.826Z,20.29
2023-07-31T23:03:10.714Z,20.30
2023-07-31T23:05:38.014Z,20.29
2023-07-31T23:08:05.075Z,20.30
2023-07-31T23:10:31.931Z,20.28
2023-07-31T23:12:58.759Z,20.22
2023-07-31T23:15:25.634Z,20.17
2023-07-31T23:17:52.565Z,20.18
2023-07-31T23:20:19.429Z,20.17
2023-07-31T23:22:46.301Z,20.13
2023-07-31T23:25:13.328Z,20.19
2023-07-31T23:27:41.462Z,20.20
2023-07-31T23:30:08.825Z,20.16
2023-07-31T23:32:35.656Z,20.13
2023-07-31T23:35:02.518Z,19.98
2023-07-31T23:37:29.317Z,19.88
2023-07-31T23:39:56.131Z,19.98
2023-07-31T23:42:23.124Z,20.05
2023-07-31T23:45:04.775Z,20.07
2023-07-31T23:47:36.836Z,19.99
2023-07-31T23:50:03.926Z,20.02
2023-07-31T23:52:30.882Z,20.01
2023-07-31T23:54:57.784Z,20.06
2023-07-31T23:57:24.709Z,20.06
2023-07-31T23:59:51.591Z,20.00
